Time;durP1;ratioP1;P1;durP2;ratioP2;P2;SDS_P1;SDS_P2;PMS_P1;PMS_P2;Temp;Humidity;BMP_temperature;BMP_pressure;BME280_temperature;BME280_humidity;BME280_pressure;Samples;Min_cycle;Max_cycle;Signal;HPM_P1;HPM_P2
2024/01/06 00:00:57;;;;;;;6.10;2.70;;;6.90;79.60;;;;;;4940119;28;21055;-72
2024/01/06 00:03:22;;;;;;;6.43;3.07;;;6.90;79.70;;;;;;4945842;28;20238;-72
2024/01/06 00:05:48;;;;;;;8.80;4.00;;;6.90;79.60;;;;;;4939114;28;20225;-70
2024/01/06 00:08:13;;;;;;;5.63;3.00;;;6.90;79.60;;;;;;4944680;28;20237;-71
2024/01/06 00:10:39;;;;;;;5.03;3.00;;;6.90;79.60;;;;;;4930548;28;20216;-70
2024/01/06 00:13:05;;;;;;;3.57;2.57;;;7.10;79.30;;;;;;4945385;28;20219;-70
2024/01/06 00:15:30;;;;;;;9.40;2.90;;;7.00;78.90;;;;;;4943258;28;20184;-71
2024/01/06 00:17:56;;;;;;;5.83;2.40;;;7.00;78.60;;;;;;4943508;28;20192;-72
2024/01/06 00:20:21;;;;;;;5.37;2.63;;;6.90;78.70;;;;;;4938191;28;20267;-71
2024/01/06 00:22:47;;;;;;;4.70;2.60;;;6.80;78.90;;;;;;4945244;28;20180;-70
2024/01/06 00:25:13;;;;;;;8.27;2.77;;;6.80;79.20;;;;;;4946241;28;20189;-71
2024/01/06 00:27:39;;;;;;;6.30;2.50;;;6.80;79.30;;;;;;4943579;28;20208;-70
2024/01/06 00:30:05;;;;;;;7.27;3.13;;;6.80;79.20;;;;;;4973085;28;20467;-70
2024/01/06 00:32:30;;;;;;;4.20;2.70;;;6.80;79.30;;;;;;4949843;28;20187;-70
2024/01/06 00:34:56;;;;;;;5.63;2.63;;;6.80;79.30;;;;;;4949056;28;20427;-70
2024/01/06 00:37:22;;;;;;;4.70;3.00;;;6.90;79.30;;;;;;4949509;28;20195;-70
2024/01/06 00:39:47;;;;;;;3.53;1.80;;;6.90;78.70;;;;;;4945140;28;20176;-70
2024/01/06 00:42:13;;;;;;;3.10;2.30;;;6.80;78.40;;;;;;4947316;28;20285;-70
2024/01/06 00:44:38;;;;;;;3.47;2.40;;;6.80;78.30;;;;;;4950825;28;20192;-72
2024/01/06 00:47:04;;;;;;;5.33;2.60;;;6.80;78.40;;;;;;4948790;28;20641;-71
2024/01/06 00:49:30;;;;;;;4.37;2.70;;;6.90;78.60;;;;;;4947621;28;20196;-72
2024/01/06 00:51:55;;;;;;;6.07;2.70;;;6.80;78.60;;;;;;4940212;28;20191;-70
2024/01/06 00:54:21;;;;;;;4.27;2.20;;;6.80;78.40;;;;;;4946416;28;20220;-70
2024/01/06 00:56:48;;;;;;;5.00;2.27;;;6.70;78.60;;;;;;4947245;28;20644;-69
2024/01/06 00:59:13;;;;;;;4.67;2.40;;;6.80;78.00;;;;;;4951910;28;20648;-71
2024/01/06 01:01:39;;;;;;;6.43;2.20;;;6.70;78.10;;;;;;4948027;28;20482;-70
2024/01/06 01:04:04;;;;;;;6.70;3.13;;;6.70;78.60;;;;;;4951565;28;20208;-70
2024/01/06 01:06:30;;;;;;;5.43;1.77;;;6.70;78.90;;;;;;4952058;28;20184;-70
2024/01/06 01:08:56;;;;;;;5.57;1.80;;;6.80;78.40;;;;;;4952089;28;20199;-70
2024/01/06 01:11:21;;;;;;;2.53;1.93;;;6.70;78.10;;;;;;4949736;28;20208;-71
2024/01/06 01:13:47;;;;;;;3.30;1.97;;;6.70;78.40;;;;;;4959555;28;20183;-72
2024/01/06 01:16:13;;;;;;;6.83;2.47;;;6.80;78.30;;;;;;4952932;28;20607;-70
2024/01/06 01:18:38;;;;;;;9.60;2.80;;;6.80;78.70;;;;;;4952615;28;20176;-70
2024/01/06 01:21:04;;;;;;;7.10;2.43;;;6.80;79.00;;;;;;4949558;28;20587;-70
2024/01/06 01:23:29;;;;;;;6.17;3.17;;;6.70;79.50;;;;;;4951028;28;20267;-72
2024/01/06 01:25:55;;;;;;;7.50;2.70;;;6.60;80.00;;;;;;4951809;28;20211;-68
2024/01/06 01:28:21;;;;;;;5.50;2.67;;;6.50;80.50;;;;;;4945273;28;20710;-71
2024/01/06 01:30:46;;;;;;;4.73;2.70;;;6.40;80.30;;;;;;4943048;28;20204;-70
2024/01/06 01:33:12;;;;;;;8.87;2.63;;;6.40;80.80;;;;;;4948820;28;20618;-71
2024/01/06 01:35:37;;;;;;;4.90;2.27;;;6.40;80.60;;;;;;4951413;28;20276;-70
2024/01/06 01:38:03;;;;;;;4.33;2.23;;;6.40;80.60;;;;;;4947137;28;20257;-71
2024/01/06 01:40:29;;;;;;;9.03;2.77;;;6.40;80.50;;;;;;4946850;28;20291;-69
2024/01/06 01:42:54;;;;;;;6.80;2.23;;;6.40;80.30;;;;;;4949607;28;20183;-71
2024/01/06 01:45:20;;;;;;;6.40;2.00;;;6.40;80.20;;;;;;4951690;28;20668;-71
2024/01/06 01:47:46;;;;;;;3.60;2.00;;;6.30;80.20;;;;;;4944433;28;20212;-71
2024/01/06 01:50:12;;;;;;;6.93;1.87;;;6.40;80.00;;;;;;4950277;28;20213;-72
2024/01/06 01:52:40;;;;;;;4.60;1.80;;;6.40;79.70;;;;;;4946752;28;20433;-70
2024/01/06 01:55:06;;;;;;;4.50;1.63;;;6.50;78.90;;;;;;4967470;28;20430;-72
2024/01/06 01:57:32;;;;;;;3.83;1.90;;;6.50;78.60;;;;;;4950508;28;20426;-70
2024/01/06 01:59:57;;;;;;;6.43;2.20;;;6.40;78.90;;;;;;4946367;28;20571;-71
2024/01/06 02:02:23;;;;;;;7.33;2.20;;;6.40;79.20;;;;;;4948080;28;20670;-70
2024/01/06 02:04:49;;;;;;;8.87;2.53;;;6.40;79.30;;;;;;4950762;28;20188;-71
2024/01/06 02:07:14;;;;;;;2.40;1.90;;;6.40;79.50;;;;;;4947405;28;20216;-71
2024/01/06 02:09:40;;;;;;;3.43;1.90;;;6.30;79.60;;;;;;4949148;28;20184;-69
2024/01/06 02:12:06;;;;;;;4.07;1.73;;;6.50;79.20;;;;;;4947577;28;20180;-71
2024/01/06 02:14:32;;;;;;;6.00;2.20;;;6.50;78.70;;;;;;4950326;28;20184;-70
2024/01/06 02:16:58;;;;;;;3.40;1.90;;;6.40;78.90;;;;;;4947477;28;20196;-72
2024/01/06 02:19:24;;;;;;;4.47;2.00;;;6.40;79.50;;;;;;4956539;28;20429;-72
2024/01/06 02:21:53;;;;;;;7.13;1.87;;;6.40;79.60;;;;;;4943870;28;20489;-71
2024/01/06 02:24:19;;;;;;;6.30;2.30;;;6.50;78.90;;;;;;4949957;28;20713;-71
2024/01/06 02:26:45;;;;;;;4.97;2.43;;;6.50;79.20;;;;;;4946042;28;20420;-71
2024/01/06 02:29:11;;;;;;;3.13;1.77;;;6.50;79.00;;;;;;4945058;28;20420;-72
2024/01/06 02:31:36;;;;;;;3.63;2.07;;;6.50;79.20;;;;;;4941927;28;21032;-71
2024/01/06 02:34:02;;;;;;;11.63;2.10;;;6.40;78.70;;;;;;4950322;28;20192;-70
2024/01/06 02:36:28;;;;;;;6.07;2.20;;;6.30;78.90;;;;;;4944834;28;20188;-71
2024/01/06 02:38:53;;;;;;;7.67;1.87;;;6.30;78.70;;;;;;4944415;28;20238;-71
2024/01/06 02:41:19;;;;;;;2.73;1.70;;;6.40;78.60;;;;;;4942391;28;20258;-71
2024/01/06 02:43:44;;;;;;;6.60;2.20;;;6.30;78.40;;;;;;4947272;28;20603;-70
2024/01/06 02:46:10;;;;;;;3.77;2.00;;;6.30;78.40;;;;;;4944500;28;20184;-72
2024/01/06 02:48:35;;;;;;;10.07;2.17;;;6.30;78.40;;;;;;4947989;28;20284;-72
2024/01/06 02:51:01;;;;;;;6.63;2.40;;;6.30;78.40;;;;;;4943751;28;20220;-71
2024/01/06 02:53:27;;;;;;;4.30;2.03;;;6.40;78.30;;;;;;4938031;28;20782;-70
2024/01/06 02:55:52;;;;;;;4.90;1.70;;;6.30;77.80;;;;;;4952049;28;20194;-71
2024/01/06 02:58:18;;;;;;;6.00;2.30;;;6.30;78.30;;;;;;4941583;28;20800;-72
2024/01/06 03:00:43;;;;;;;5.27;2.40;;;6.30;78.30;;;;;;4942366;28;20207;-71
2024/01/06 03:03:09;;;;;;;5.37;2.63;;;6.30;78.90;;;;;;4943490;28;20184;-70
2024/01/06 03:05:36;;;;;;;9.43;1.93;;;6.20;79.20;;;;;;4946655;28;20207;-70
2024/01/06 03:08:02;;;;;;;5.73;1.80;;;6.20;79.30;;;;;;4948781;28;20217;-70
2024/01/06 03:10:28;;;;;;;4.00;2.10;;;6.20;79.20;;;;;;4944081;28;20471;-70
2024/01/06 03:12:54;;;;;;;3.23;2.13;;;6.20;79.30;;;;;;4955460;28;20803;-70
2024/01/06 03:15:19;;;;;;;4.73;2.10;;;6.20;79.30;;;;;;4948399;28;20683;-72
2024/01/06 03:17:45;;;;;;;8.90;2.20;;;6.20;79.30;;;;;;4946073;28;20589;-71
2024/01/06 03:20:11;;;;;;;9.10;2.30;;;6.20;79.20;;;;;;4943608;28;20221;-72
2024/01/06 03:22:38;;;;;;;7.10;2.30;;;6.10;79.60;;;;;;4946600;28;20184;-71
2024/01/06 03:25:04;;;;;;;6.90;2.00;;;6.00;78.60;;;;;;4949340;28;20198;-71
2024/01/06 03:27:29;;;;;;;10.80;2.40;;;6.00;79.20;;;;;;4941730;28;20862;-70
2024/01/06 03:29:55;;;;;;;5.30;2.17;;;6.00;79.30;;;;;;4943285;28;20477;-71
2024/01/06 03:32:21;;;;;;;5.27;2.10;;;6.00;79.30;;;;;;4964904;28;20245;-71
2024/01/06 03:34:47;;;;;;;3.57;2.00;;;6.00;79.20;;;;;;4946779;28;20254;-70
2024/01/06 03:37:12;;;;;;;4.70;2.30;;;6.00;78.90;;;;;;4943771;28;20935;-71
2024/01/06 03:39:38;;;;;;;4.73;2.10;;;6.00;78.90;;;;;;4944638;28;20234;-71
2024/01/06 03:42:04;;;;;;;4.20;2.13;;;6.00;78.90;;;;;;4959907;28;20203;-70
2024/01/06 03:44:30;;;;;;;6.23;2.20;;;6.00;78.40;;;;;;4943772;28;20187;-72
2024/01/06 03:46:57;;;;;;;18.43;3.33;;;6.00;78.70;;;;;;4943050;28;20486;-73
2024/01/06 03:49:23;;;;;;;5.80;2.27;;;6.00;79.00;;;;;;4940963;28;20857;-71
2024/01/06 03:51:49;;;;;;;6.43;2.30;;;6.00;78.40;;;;;;4944155;28;21026;-70
2024/01/06 03:54:15;;;;;;;5.33;2.37;;;5.90;78.60;;;;;;4942994;28;20451;-70
2024/01/06 03:56:40;;;;;;;7.30;2.57;;;6.00;79.20;;;;;;4951424;28;20271;-70
2024/01/06 03:59:06;;;;;;;5.03;2.10;;;6.10;79.00;;;;;;4940309;28;20615;-69
2024/01/06 04:01:34;;;;;;;7.57;2.23;;;6.10;78.90;;;;;;4945100;28;20230;-71
2024/01/06 04:04:00;;;;;;;3.23;2.33;;;6.10;78.90;;;;;;4949927;28;20709;-71
2024/01/06 04:06:26;;;;;;;6.73;2.30;;;6.20;78.60;;;;;;4944335;28;20834;-70
2024/01/06 04:08:54;;;;;;;3.20;2.20;;;6.20;78.30;;;;;;4948647;28;21068;-70
2024/01/06 04:11:20;;;;;;;5.47;2.43;;;6.20;78.30;;;;;;4945670;28;20628;-70
2024/01/06 04:13:46;;;;;;;6.00;2.00;;;6.20;78.40;;;;;;4947229;28;20424;-70
2024/01/06 04:16:12;;;;;;;5.87;1.83;;;6.20;78.40;;;;;;4945702;28;20474;-72
2024/01/06 04:18:37;;;;;;;5.73;2.77;;;6.20;78.40;;;;;;4948388;28;20554;-70
2024/01/06 04:21:04;;;;;;;3.87;2.23;;;6.10;78.40;;;;;;4939127;28;20208;-70
2024/01/06 04:23:30;;;;;;;7.47;2.27;;;6.10;78.70;;;;;;4944815;28;20192;-71
2024/01/06 04:25:56;;;;;;;5.47;2.27;;;6.00;78.60;;;;;;4945051;28;20435;-70
2024/01/06 04:28:21;;;;;;;13.07;2.50;;;6.00;78.70;;;;;;4942688;28;20483;-71
2024/01/06 04:30:47;;;;;;;6.03;2.50;;;6.00;78.60;;;;;;4940718;28;20587;-71
2024/01/06 04:33:13;;;;;;;4.23;2.17;;;6.00;78.40;;;;;;4950775;28;20192;-71
2024/01/06 04:35:38;;;;;;;5.60;2.20;;;6.00;78.10;;;;;;4945543;28;20618;-69
2024/01/06 04:38:04;;;;;;;10.83;2.30;;;6.10;78.10;;;;;;4948560;28;20180;-71
2024/01/06 04:40:30;;;;;;;5.47;2.33;;;6.10;78.00;;;;;;4947232;28;20295;-70
2024/01/06 04:42:55;;;;;;;3.50;2.10;;;6.10;77.80;;;;;;4948536;28;20436;-70
2024/01/06 04:45:23;;;;;;;3.87;2.30;;;6.00;78.00;;;;;;4950324;28;20279;-70
2024/01/06 04:47:49;;;;;;;3.57;2.00;;;6.00;78.00;;;;;;4955792;28;20555;-71
2024/01/06 04:50:15;;;;;;;4.60;2.43;;;6.00;78.10;;;;;;4955715;28;20495;-70
2024/01/06 04:52:41;;;;;;;6.93;1.70;;;6.00;78.10;;;;;;4945009;28;20931;-70
2024/01/06 04:55:06;;;;;;;5.13;2.00;;;6.00;78.00;;;;;;4946512;28;20194;-69
2024/01/06 04:57:32;;;;;;;10.73;2.10;;;6.00;77.80;;;;;;4949875;28;20239;-71
2024/01/06 04:59:58;;;;;;;3.67;1.80;;;6.00;77.60;;;;;;4946967;28;20553;-71
2024/01/06 05:02:24;;;;;;;4.57;2.40;;;6.00;77.40;;;;;;4951384;28;20190;-71
2024/01/06 05:04:49;;;;;;;13.70;2.10;;;6.00;77.40;;;;;;4947164;28;20192;-71
2024/01/06 05:07:15;;;;;;;3.50;1.90;;;6.00;77.30;;;;;;4950338;28;20464;-71
2024/01/06 05:09:41;;;;;;;5.90;2.20;;;6.00;77.40;;;;;;4939691;28;20184;-71
2024/01/06 05:12:07;;;;;;;3.43;1.70;;;6.00;77.40;;;;;;4948799;28;20701;-71
2024/01/06 05:14:32;;;;;;;8.20;2.00;;;6.00;77.80;;;;;;4947662;28;20202;-71
2024/01/06 05:16:58;;;;;;;4.00;1.70;;;6.10;77.60;;;;;;4947412;28;20432;-70
2024/01/06 05:19:23;;;;;;;7.10;1.93;;;6.10;77.10;;;;;;4941888;28;20195;-70
2024/01/06 05:21:49;;;;;;;3.27;1.90;;;6.10;76.80;;;;;;4943355;28;20208;-71
2024/01/06 05:24:15;;;;;;;5.43;2.00;;;6.10;77.10;;;;;;4945620;28;20241;-70
2024/01/06 05:26:41;;;;;;;4.00;2.10;;;6.00;77.00;;;;;;4948635;28;20485;-70
2024/01/06 05:29:07;;;;;;;4.87;2.13;;;6.10;77.40;;;;;;4951582;28;20230;-71
2024/01/06 05:31:33;;;;;;;4.20;1.77;;;6.10;77.30;;;;;;4956129;28;20261;-71
2024/01/06 05:33:58;;;;;;;3.83;2.20;;;6.00;77.30;;;;;;4942944;28;20619;-71
2024/01/06 05:36:24;;;;;;;3.93;1.83;;;6.10;77.10;;;;;;4949673;28;20650;-72
2024/01/06 05:38:50;;;;;;;4.70;1.67;;;6.00;76.80;;;;;;4949773;28;20179;-71
2024/01/06 05:41:15;;;;;;;3.20;1.80;;;6.10;76.70;;;;;;4951488;28;20219;-72
2024/01/06 05:43:41;;;;;;;2.83;1.80;;;6.20;76.50;;;;;;4954513;28;20672;-72
2024/01/06 05:46:07;;;;;;;5.13;2.50;;;6.10;76.50;;;;;;4964634;28;20199;-71
2024/01/06 05:48:33;;;;;;;4.40;2.07;;;6.00;76.70;;;;;;4962535;28;20235;-69
2024/01/06 05:50:58;;;;;;;5.70;2.07;;;6.00;77.00;;;;;;4945545;28;20471;-70
2024/01/06 05:53:24;;;;;;;6.50;1.70;;;5.90;77.10;;;;;;4947870;28;20195;-70
2024/01/06 05:55:50;;;;;;;2.30;1.70;;;6.00;77.30;;;;;;4946220;28;20195;-69
2024/01/06 05:58:16;;;;;;;4.97;1.70;;;6.10;77.00;;;;;;4947091;28;20203;-70
2024/01/06 06:00:41;;;;;;;6.80;1.93;;;6.00;76.70;;;;;;4943741;28;20983;-69
2024/01/06 06:03:07;;;;;;;5.87;2.10;;;6.00;76.80;;;;;;4949298;28;20268;-70
2024/01/06 06:05:33;;;;;;;5.93;1.93;;;6.00;77.30;;;;;;4951011;28;20553;-70
2024/01/06 06:07:58;;;;;;;5.90;1.93;;;6.00;77.10;;;;;;4949582;28;20463;-69
2024/01/06 06:10:29;;;;;;;2.90;1.80;;;6.00;77.00;;;;;;4945750;28;20262;-70
2024/01/06 06:12:55;;;;;;;2.23;1.70;;;6.00;77.10;;;;;;4948755;28;20716;-69
2024/01/06 06:15:21;;;;;;;4.47;2.10;;;6.00;77.00;;;;;;4948395;28;20507;-72
2024/01/06 06:17:46;;;;;;;4.60;2.23;;;6.00;77.30;;;;;;4960401;28;20275;-72
2024/01/06 06:20:12;;;;;;;4.87;2.00;;;6.10;77.10;;;;;;4943012;28;20656;-72
2024/01/06 06:22:38;;;;;;;4.60;2.13;;;6.10;76.70;;;;;;4945356;28;20191;-70
2024/01/06 06:25:04;;;;;;;3.57;1.80;;;6.10;76.80;;;;;;4946808;28;20561;-70
2024/01/06 06:27:30;;;;;;;3.77;2.20;;;6.10;77.10;;;;;;4947664;28;20326;-70
2024/01/06 06:29:56;;;;;;;4.27;2.23;;;6.00;76.70;;;;;;4942214;28;21180;-72
2024/01/06 06:32:21;;;;;;;8.07;2.47;;;6.10;76.80;;;;;;4947587;28;20415;-71
2024/01/06 06:34:47;;;;;;;2.17;1.70;;;6.00;77.00;;;;;;4950429;28;20669;-72
2024/01/06 06:37:13;;;;;;;4.23;2.43;;;6.00;77.00;;;;;;4944399;28;20207;-71
2024/01/06 06:39:38;;;;;;;4.20;2.10;;;5.90;77.10;;;;;;4948077;28;20184;-71
2024/01/06 06:42:04;;;;;;;3.27;1.80;;;5.90;77.60;;;;;;4949592;28;20188;-71
2024/01/06 06:44:30;;;;;;;4.57;2.57;;;5.90;77.80;;;;;;4950054;28;20184;-71
2024/01/06 06:46:56;;;;;;;5.90;2.30;;;5.90;77.80;;;;;;4945363;28;21028;-71
2024/01/06 06:49:22;;;;;;;2.83;1.93;;;6.00;78.00;;;;;;4949223;28;20261;-70
2024/01/06 06:51:48;;;;;;;6.00;2.07;;;5.90;77.80;;;;;;4946214;28;20990;-72
2024/01/06 06:54:15;;;;;;;6.03;2.27;;;5.80;77.70;;;;;;4949158;28;20235;-71
2024/01/06 06:56:44;;;;;;;5.20;2.23;;;5.80;78.00;;;;;;4949851;28;20454;-70
2024/01/06 06:59:10;;;;;;;4.80;2.13;;;5.90;78.00;;;;;;4949221;28;20944;-71
2024/01/06 07:01:35;;;;;;;4.20;2.20;;;6.00;77.80;;;;;;4944843;28;20478;-70
2024/01/06 07:04:02;;;;;;;3.73;2.10;;;6.00;77.80;;;;;;4947640;28;20939;-72
2024/01/06 07:06:28;;;;;;;11.73;3.43;;;6.00;78.00;;;;;;4947797;28;20191;-70
2024/01/06 07:08:54;;;;;;;6.00;2.27;;;6.10;77.70;;;;;;4949367;28;20613;-70
2024/01/06 07:11:20;;;;;;;11.90;2.23;;;6.10;77.60;;;;;;4942891;28;20698;-71
2024/01/06 07:13:45;;;;;;;6.17;2.23;;;6.10;77.80;;;;;;4949793;28;21088;-70
2024/01/06 07:16:14;;;;;;;4.57;3.13;;;6.00;77.60;;;;;;4945883;28;20192;-71
2024/01/06 07:18:41;;;;;;;4.93;2.30;;;5.90;78.70;;;;;;4950269;28;20196;-71
2024/01/06 07:21:07;;;;;;;4.57;2.27;;;5.80;79.00;;;;;;4942697;28;20487;-70
2024/01/06 07:23:33;;;;;;;3.80;1.80;;;5.70;79.60;;;;;;4951767;28;20435;-70
2024/01/06 07:25:59;;;;;;;4.10;1.83;;;5.70;79.70;;;;;;4948523;28;20416;-70
2024/01/06 07:28:25;;;;;;;3.50;2.00;;;5.70;79.90;;;;;;4946923;28;20573;-69
2024/01/06 07:30:50;;;;;;;3.80;2.70;;;5.70;79.90;;;;;;4943940;28;20212;-69
2024/01/06 07:33:16;;;;;;;7.67;2.50;;;5.70;80.00;;;;;;4948310;28;20440;-71
2024/01/06 07:35:43;;;;;;;6.43;2.33;;;5.80;79.90;;;;;;4945922;28;20238;-71
2024/01/06 07:38:10;;;;;;;5.77;2.10;;;5.80;79.50;;;;;;4967363;28;20267;-71
2024/01/06 07:40:36;;;;;;;5.30;2.40;;;5.80;79.50;;;;;;4947436;28;20452;-73
2024/01/06 07:43:01;;;;;;;5.53;2.47;;;5.80;79.30;;;;;;4949798;28;20469;-72
2024/01/06 07:45:27;;;;;;;4.93;2.27;;;5.80;78.70;;;;;;4950456;28;20428;-73
2024/01/06 07:47:53;;;;;;;2.60;2.20;;;5.90;78.90;;;;;;4949051;28;20741;-73
2024/01/06 07:50:18;;;;;;;3.80;2.07;;;5.90;79.00;;;;;;4947545;28;20204;-73
2024/01/06 07:52:44;;;;;;;5.80;2.30;;;6.00;78.40;;;;;;4949427;28;20452;-73
2024/01/06 07:55:10;;;;;;;5.20;2.37;;;6.00;78.60;;;;;;4947788;28;20188;-72
2024/01/06 07:57:35;;;;;;;7.67;2.80;;;6.00;78.60;;;;;;4952368;28;20200;-71
2024/01/06 08:00:01;;;;;;;5.53;2.40;;;6.00;78.10;;;;;;4943417;28;20219;-72
2024/01/06 08:02:26;;;;;;;3.60;2.07;;;6.00;77.80;;;;;;4950366;28;20184;-73
2024/01/06 08:04:53;;;;;;;5.40;2.00;;;5.90;77.80;;;;;;4949400;28;20330;-73
2024/01/06 08:07:19;;;;;;;5.37;2.37;;;5.90;77.70;;;;;;4969010;28;20200;-73
2024/01/06 08:09:45;;;;;;;10.23;2.50;;;5.90;77.60;;;;;;4949430;28;20442;-71
2024/01/06 08:12:10;;;;;;;5.17;2.20;;;5.90;77.60;;;;;;4950953;28;20204;-70
2024/01/06 08:14:36;;;;;;;2.47;1.80;;;5.90;78.10;;;;;;4954774;28;20220;-71
2024/01/06 08:17:02;;;;;;;3.57;2.10;;;5.80;77.40;;;;;;4949856;28;20196;-72
2024/01/06 08:19:29;;;;;;;3.67;1.83;;;5.80;77.70;;;;;;4950792;28;20191;-72
2024/01/06 08:21:55;;;;;;;2.80;2.00;;;5.80;77.80;;;;;;4944560;28;20217;-72
2024/01/06 08:24:21;;;;;;;4.17;2.00;;;5.90;77.70;;;;;;4950051;28;20732;-72
2024/01/06 08:26:47;;;;;;;2.63;1.83;;;5.90;77.60;;;;;;4947537;28;20613;-73
2024/01/06 08:29:14;;;;;;;4.03;2.33;;;5.90;77.40;;;;;;4966097;28;20200;-73
2024/01/06 08:31:40;;;;;;;7.03;2.13;;;5.80;77.70;;;;;;4949684;28;20478;-73
2024/01/06 08:34:07;;;;;;;3.00;2.03;;;5.90;77.40;;;;;;4953389;28;20428;-71
2024/01/06 08:36:33;;;;;;;4.90;2.13;;;5.90;77.10;;;;;;4952921;28;20188;-72
2024/01/06 08:38:59;;;;;;;8.07;2.57;;;6.00;76.80;;;;;;4951514;28;20451;-73
2024/01/06 08:41:26;;;;;;;3.07;2.40;;;6.00;76.70;;;;;;4949569;28;20506;-72
2024/01/06 08:43:52;;;;;;;4.13;2.50;;;6.10;76.70;;;;;;4954064;28;20200;-72
2024/01/06 08:46:17;;;;;;;5.00;2.43;;;6.10;76.80;;;;;;4950419;28;20427;-73
2024/01/06 08:48:43;;;;;;;5.17;2.30;;;6.20;76.50;;;;;;4921409;28;1111498;-72
2024/01/06 08:51:08;;;;;;;3.23;2.37;;;6.20;76.10;;;;;;4950912;28;20218;-73
2024/01/06 08:53:34;;;;;;;5.40;2.40;;;6.30;76.40;;;;;;4952385;28;20218;-72
2024/01/06 08:56:00;;;;;;;2.60;1.90;;;6.30;76.20;;;;;;4980641;28;20652;-73
2024/01/06 08:58:25;;;;;;;3.80;2.00;;;6.40;76.50;;;;;;4952465;28;20188;-71
2024/01/06 09:00:53;;;;;;;4.33;2.10;;;6.50;75.10;;;;;;4949973;28;20239;-72
2024/01/06 09:03:24;;;;;;;6.37;2.10;;;6.50;74.60;;;;;;4947584;28;20202;-71
2024/01/06 09:05:51;;;;;;;2.27;1.93;;;6.60;75.10;;;;;;4973604;28;20431;-71
2024/01/06 09:08:17;;;;;;;3.97;2.23;;;6.80;74.20;;;;;;4946227;28;20482;-73
2024/01/06 09:10:43;;;;;;;5.07;2.00;;;6.70;73.90;;;;;;4945912;28;20455;-74
2024/01/06 09:13:08;;;;;;;4.70;2.23;;;6.70;73.50;;;;;;4953036;28;20192;-73
2024/01/06 09:15:34;;;;;;;3.63;2.30;;;6.70;73.90;;;;;;4974362;28;20420;-73
2024/01/06 09:18:00;;;;;;;3.97;2.03;;;6.70;74.00;;;;;;4949475;28;20196;-73
2024/01/06 09:20:27;;;;;;;2.80;1.87;;;6.70;73.70;;;;;;4945029;28;20212;-73
2024/01/06 09:22:53;;;;;;;3.97;2.10;;;6.80;73.30;;;;;;4953556;28;20218;-72
2024/01/06 09:25:23;;;;;;;2.40;1.83;;;6.80;73.60;;;;;;4958579;28;20424;-76
2024/01/06 09:27:48;;;;;;;4.53;2.33;;;6.70;73.50;;;;;;4952317;28;20219;-73
2024/01/06 09:30:14;;;;;;;3.43;1.90;;;6.70;73.50;;;;;;4945531;28;20475;-71
2024/01/06 09:32:39;;;;;;;3.50;1.63;;;6.70;73.50;;;;;;4951153;28;20188;-74
2024/01/06 09:35:05;;;;;;;3.70;1.97;;;6.80;73.70;;;;;;4946650;28;20184;-73
2024/01/06 09:37:31;;;;;;;4.60;2.00;;;6.80;73.50;;;;;;4955198;28;20188;-71
2024/01/06 09:39:56;;;;;;;4.80;1.63;;;6.80;72.90;;;;;;4976304;28;20216;-72
2024/01/06 09:42:22;;;;;;;4.73;2.17;;;6.90;73.20;;;;;;4953015;28;20184;-72
2024/01/06 09:44:47;;;;;;;6.17;2.13;;;7.00;73.30;;;;;;4958477;28;20176;-71
2024/01/06 09:47:16;;;;;;;5.07;2.30;;;7.10;72.40;;;;;;4976181;28;20205;-73
2024/01/06 09:49:49;;;;;;;2.80;2.30;;;7.00;72.40;;;;;;4952111;28;20263;-73
2024/01/06 09:52:20;;;;;;;1.93;1.40;;;7.10;72.90;;;;;;4952426;28;20497;-74
2024/01/06 09:54:53;;;;;;;2.80;1.53;;;7.00;72.70;;;;;;4949713;28;20419;-75
2024/01/06 09:57:20;;;;;;;3.93;2.20;;;6.90;72.60;;;;;;4952858;28;20450;-73
2024/01/06 09:59:46;;;;;;;4.20;2.40;;;6.70;73.30;;;;;;4946267;28;20967;-73
2024/01/06 10:02:15;;;;;;;3.43;2.00;;;6.70;73.60;;;;;;4949635;28;20814;-73
2024/01/06 10:04:42;;;;;;;5.07;2.07;;;6.80;74.20;;;;;;4951559;28;20484;-71
2024/01/06 10:07:07;;;;;;;1.87;1.47;;;6.80;73.60;;;;;;4952079;28;20423;-73
2024/01/06 10:09:33;;;;;;;5.50;2.30;;;6.90;74.50;;;;;;4946939;28;20412;-73
2024/01/06 10:11:59;;;;;;;2.53;1.83;;;6.90;74.60;;;;;;4944385;28;20603;-73
2024/01/06 10:14:25;;;;;;;3.87;2.00;;;7.00;74.80;;;;;;4949805;28;20188;-72
2024/01/06 10:16:54;;;;;;;2.33;1.73;;;7.10;74.50;;;;;;4947421;28;20419;-73
2024/01/06 10:19:20;;;;;;;3.97;1.87;;;7.10;74.30;;;;;;4946543;28;20436;-73
2024/01/06 10:21:46;;;;;;;5.43;2.07;;;7.10;74.50;;;;;;4942357;28;20463;-73
2024/01/06 10:24:12;;;;;;;2.90;1.93;;;7.10;75.20;;;;;;4945061;28;21158;-74
2024/01/06 10:26:38;;;;;;;2.63;1.83;;;7.10;75.70;;;;;;4943898;28;20235;-74
2024/01/06 10:29:04;;;;;;;4.83;1.83;;;7.10;75.20;;;;;;4941949;28;20223;-75
2024/01/06 10:31:30;;;;;;;2.90;1.90;;;6.90;75.70;;;;;;4940495;28;20464;-73
2024/01/06 10:33:56;;;;;;;2.47;1.90;;;6.90;76.10;;;;;;4950591;28;20267;-73
2024/01/06 10:36:26;;;;;;;2.50;1.90;;;6.90;76.40;;;;;;4963396;28;20519;-81
2024/01/06 10:38:52;;;;;;;2.00;1.60;;;6.90;76.40;;;;;;4953480;28;20450;-74
2024/01/06 10:41:20;;;;;;;3.80;2.03;;;7.00;75.90;;;;;;4949159;28;20558;-72
2024/01/06 10:43:47;;;;;;;3.57;1.70;;;6.90;75.90;;;;;;4950093;28;20420;-72
2024/01/06 10:46:15;;;;;;;3.30;1.73;;;6.90;75.90;;;;;;4950290;28;20936;-74
2024/01/06 10:48:42;;;;;;;3.00;1.60;;;6.90;75.90;;;;;;4949516;28;20956;-74
2024/01/06 10:51:13;;;;;;;4.10;2.50;;;6.90;76.50;;;;;;4947251;28;20487;-72
2024/01/06 10:53:40;;;;;;;4.53;2.20;;;6.90;76.80;;;;;;4950920;28;20962;-69
2024/01/06 10:56:10;;;;;;;8.27;2.10;;;7.00;76.40;;;;;;4950988;28;20430;-72
2024/01/06 10:58:42;;;;;;;3.47;2.43;;;6.90;77.10;;;;;;4950552;28;20932;-72
2024/01/06 11:01:09;;;;;;;2.33;1.80;;;6.90;77.10;;;;;;4945178;28;20460;-73
2024/01/06 11:03:37;;;;;;;4.70;2.33;;;6.90;76.80;;;;;;4946156;28;20426;-73
2024/01/06 11:06:04;;;;;;;3.00;2.00;;;6.90;76.80;;;;;;4950475;28;20427;-72
2024/01/06 11:08:33;;;;;;;2.13;1.73;;;6.80;77.40;;;;;;4947567;28;20537;-72
2024/01/06 11:11:00;;;;;;;1.70;1.50;;;6.70;78.10;;;;;;4941991;28;20874;-74
2024/01/06 11:13:26;;;;;;;3.33;2.23;;;6.70;78.70;;;;;;4949923;28;20427;-74
2024/01/06 11:15:53;;;;;;;4.47;2.40;;;6.80;78.90;;;;;;4948514;28;20958;-74
2024/01/06 11:18:37;;;;;;;3.00;2.30;;;6.70;79.20;;;;;;4953802;28;20214;-72
2024/01/06 11:21:21;;;;;;;3.97;2.23;;;6.90;79.50;;;;;;4952191;28;20455;-71
2024/01/06 11:24:10;;;;;;;3.03;2.13;;;7.00;78.90;;;;;;4951017;28;20442;-73
2024/01/06 11:26:40;;;;;;;4.03;1.90;;;7.00;78.90;;;;;;4983931;28;20423;-73
2024/01/06 11:29:07;;;;;;;2.77;1.97;;;7.00;78.70;;;;;;4949123;28;20837;-73
2024/01/06 11:31:34;;;;;;;2.67;1.60;;;6.80;78.10;;;;;;4945858;28;20459;-71
2024/01/06 11:34:21;;;;;;;3.13;2.30;;;6.80;78.10;;;;;;4949882;28;20447;-73
2024/01/06 11:36:50;;;;;;;3.83;2.13;;;6.80;78.40;;;;;;4944822;28;20415;-74
2024/01/06 11:39:49;;;;;;;3.80;2.20;;;6.80;78.60;;;;;;4947757;28;20424;-71
2024/01/06 11:42:15;;;;;;;6.70;3.40;;;6.80;78.90;;;;;;4976868;28;21150;-74
2024/01/06 11:44:45;;;;;;;5.70;3.23;;;6.80;79.00;;;;;;4986794;28;20462;-71
2024/01/06 11:47:12;;;;;;;4.97;2.80;;;6.80;79.00;;;;;;4987917;28;20663;-73
2024/01/06 11:49:37;;;;;;;4.63;2.83;;;6.70;79.50;;;;;;4986207;28;20437;-72
2024/01/06 11:52:03;;;;;;;3.93;2.00;;;6.80;79.30;;;;;;4977445;28;20448;-72
2024/01/06 11:54:31;;;;;;;3.80;2.40;;;6.70;79.20;;;;;;4982035;28;20667;-74
2024/01/06 11:56:57;;;;;;;3.37;2.27;;;6.90;79.30;;;;;;4985078;28;20626;-73
2024/01/06 11:59:23;;;;;;;2.70;2.10;;;6.90;79.20;;;;;;4981909;28;20413;-73
2024/01/06 12:01:49;;;;;;;5.73;2.47;;;6.80;78.70;;;;;;4975306;28;20554;-73
2024/01/06 12:04:18;;;;;;;6.10;3.50;;;6.60;78.90;;;;;;4979281;28;20453;-71
2024/01/06 12:06:43;;;;;;;5.63;2.50;;;6.60;79.70;;;;;;4982349;28;20190;-72
2024/01/06 12:09:14;;;;;;;4.13;3.10;;;6.50;80.00;;;;;;4980138;28;20473;-72
2024/01/06 12:11:40;;;;;;;4.67;3.30;;;6.60;80.30;;;;;;4976444;28;20262;-72
2024/01/06 12:14:06;;;;;;;6.53;3.47;;;6.50;80.20;;;;;;4980113;28;21099;-74
2024/01/06 12:16:32;;;;;;;6.73;3.93;;;6.30;80.80;;;;;;4984344;28;20510;-71
2024/01/06 12:19:00;;;;;;;5.10;3.40;;;6.30;81.20;;;;;;4946842;28;20487;-73
2024/01/06 12:21:29;;;;;;;6.63;4.10;;;6.40;81.50;;;;;;4945531;28;20464;-72
2024/01/06 12:23:54;;;;;;;9.70;4.30;;;6.40;81.20;;;;;;4948133;28;20485;-74
2024/01/06 12:26:20;;;;;;;5.60;3.33;;;6.40;81.20;;;;;;4949621;28;20420;-72
2024/01/06 12:28:46;;;;;;;8.67;3.53;;;6.40;81.20;;;;;;4948282;28;20377;-74
2024/01/06 12:31:12;;;;;;;5.77;4.00;;;6.10;81.80;;;;;;4944863;28;20222;-73
2024/01/06 12:33:41;;;;;;;5.73;3.60;;;6.20;82.10;;;;;;4948928;28;20420;-71
2024/01/06 12:36:08;;;;;;;5.97;4.10;;;6.30;82.10;;;;;;4947906;28;20431;-72
2024/01/06 12:38:37;;;;;;;8.03;3.77;;;6.30;81.90;;;;;;4945923;28;20436;-72
2024/01/06 12:41:04;;;;;;;8.20;3.97;;;6.30;81.80;;;;;;4946498;28;20509;-72
2024/01/06 12:43:30;;;;;;;5.13;4.33;;;6.30;81.80;;;;;;4949391;28;20740;-71
2024/01/06 12:45:57;;;;;;;4.40;3.20;;;6.40;81.90;;;;;;4946565;28;20420;-71
2024/01/06 12:48:24;;;;;;;5.63;3.50;;;6.50;81.50;;;;;;4960063;28;20234;-72
2024/01/06 12:50:49;;;;;;;5.20;4.00;;;6.50;80.90;;;;;;4946116;28;20495;-71
2024/01/06 12:53:17;;;;;;;4.90;3.70;;;6.40;80.60;;;;;;4953985;28;20451;-72